Time;durP1;ratioP1;P1;durP2;ratioP2;P2;SDS_P1;SDS_P2;PMS_P1;PMS_P2;Temp;Humidity;BMP_temperature;BMP_pressure;BME280_temperature;BME280_humidity;BME280_pressure;Samples;Min_cycle;Max_cycle;Signal;HPM_P1;HPM_P2
2022/04/01 00:02:04;;;;;;;28.17;22.67;;;;;;;6.22;68.83;98814.75;4173616;28;20471;-69
2022/04/01 00:04:07;;;;;;;28.00;23.75;;;;;;;6.15;69.24;98817.28;4177329;28;20119;-69
2022/04/01 00:06:10;;;;;;;28.88;24.13;;;;;;;6.18;68.81;98812.16;4172433;28;20425;-68
2022/04/01 00:08:13;;;;;;;28.00;23.10;;;;;;;6.19;69.34;98812.16;4179317;28;20037;-68
2022/04/01 00:10:17;;;;;;;30.83;24.02;;;;;;;6.26;68.77;98820.78;4178480;28;20041;-69
2022/04/01 00:12:20;;;;;;;29.98;22.83;;;;;;;6.20;68.88;98818.16;4181346;28;20037;-68
2022/04/01 00:14:23;;;;;;;30.35;21.80;;;;;;;6.28;68.38;98821.66;4167303;28;20030;-69
2022/04/01 00:16:26;;;;;;;31.45;24.35;;;;;;;6.24;68.12;98820.78;4181031;28;20056;-66
2022/04/01 00:18:31;;;;;;;26.77;21.63;;;;;;;6.22;68.40;98814.75;4155541;28;20132;-68
2022/04/01 00:20:34;;;;;;;27.02;22.50;;;;;;;6.34;68.06;98820.81;4177140;28;20128;-66
2022/04/01 00:22:37;;;;;;;27.27;20.23;;;;;;;6.23;67.65;98821.63;4182820;28;20383;-66
2022/04/01 00:24:40;;;;;;;27.55;20.65;;;;;;;6.17;68.09;98819.00;4181246;28;20029;-67
2022/04/01 00:26:43;;;;;;;27.67;22.17;;;;;;;6.16;67.75;98822.44;4181119;28;20056;-66
2022/04/01 00:28:46;;;;;;;28.08;21.35;;;;;;;6.16;67.72;98829.31;4181462;28;20052;-67
2022/04/01 00:30:49;;;;;;;29.15;21.85;;;;;;;6.04;67.75;98822.38;4172847;28;20107;-69
2022/04/01 00:32:53;;;;;;;26.40;21.35;;;;;;;6.07;68.03;98824.97;4182531;28;20119;-66
2022/04/01 00:34:58;;;;;;;26.50;21.88;;;;;;;5.93;69.08;98820.56;4174093;28;20094;-66
2022/04/01 00:37:03;;;;;;;29.77;24.00;;;;;;;6.03;69.11;98815.47;4182506;28;20041;-66
2022/04/01 00:39:05;;;;;;;28.70;23.55;;;;;;;5.93;69.62;98817.13;4180348;28;20064;-66
2022/04/01 00:41:08;;;;;;;28.80;23.08;;;;;;;6.03;69.58;98818.06;4177825;28;20039;-66
2022/04/01 00:43:12;;;;;;;27.25;21.65;;;;;;;6.18;68.44;98822.47;4181238;28;20040;-66
2022/04/01 00:45:16;;;;;;;28.23;22.30;;;;;;;6.22;68.15;98817.34;4163262;28;20095;-66
2022/04/01 00:47:19;;;;;;;28.07;22.90;;;;;;;6.08;68.55;98819.81;4182409;28;20033;-66
2022/04/01 00:49:24;;;;;;;28.55;23.45;;;;;;;6.07;68.68;98814.66;4174871;28;20370;-66
2022/04/01 00:51:28;;;;;;;29.55;23.33;;;;;;;6.04;68.47;98806.91;4168510;28;20037;-66
2022/04/01 00:53:31;;;;;;;27.75;22.10;;;;;;;6.06;67.99;98811.22;4164511;28;20041;-66
2022/04/01 00:55:34;;;;;;;30.08;23.58;;;;;;;5.96;68.46;98814.56;4179772;28;20041;-67
2022/04/01 00:57:38;;;;;;;29.55;24.58;;;;;;;5.94;68.27;98808.53;4175297;28;20473;-67
2022/04/01 00:59:41;;;;;;;29.80;23.63;;;;;;;5.84;68.81;98820.50;4172262;28;20049;-66
2022/04/01 01:01:45;;;;;;;27.83;21.27;;;;;;;6.13;68.00;98814.69;4178341;28;20083;-66
2022/04/01 01:03:49;;;;;;;26.25;21.75;;;;;;;5.98;68.36;98810.31;4175864;28;20037;-66
2022/04/01 01:05:53;;;;;;;28.52;23.02;;;;;;;5.95;68.61;98816.25;4176547;28;20068;-66
2022/04/01 01:07:58;;;;;;;26.30;21.70;;;;;;;6.11;67.70;98808.66;4170160;28;20076;-66
2022/04/01 01:10:01;;;;;;;27.80;23.35;;;;;;;6.18;67.21;98801.84;4154122;28;20041;-66
2022/04/01 01:12:06;;;;;;;26.80;22.00;;;;;;;6.19;66.58;98808.69;4194968;28;20032;-66
2022/04/01 01:14:13;;;;;;;28.15;23.27;;;;;;;6.01;66.94;98806.88;4196045;28;20449;-66
2022/04/01 01:16:15;;;;;;;25.15;20.75;;;;;;;6.01;66.45;98809.47;4190594;28;20064;-66
2022/04/01 01:18:18;;;;;;;27.88;21.80;;;;;;;5.91;66.90;98811.97;4179078;28;20132;-66
2022/04/01 01:20:21;;;;;;;26.75;22.48;;;;;;;5.91;67.43;98816.25;4163294;28;20041;-67
2022/04/01 01:22:24;;;;;;;30.02;22.73;;;;;;;5.69;68.05;98817.81;4172626;28;20033;-66
2022/04/01 01:24:31;;;;;;;26.92;22.88;;;;;;;5.82;67.62;98817.03;4175469;28;20037;-66
2022/04/01 01:26:35;;;;;;;29.00;24.27;;;;;;;5.90;67.13;98820.56;4180265;28;20041;-66
2022/04/01 01:28:39;;;;;;;27.13;22.63;;;;;;;5.77;68.20;98813.59;4176317;28;20037;-66
2022/04/01 01:30:41;;;;;;;27.67;23.85;;;;;;;5.74;68.39;98813.56;4180437;28;20037;-67
2022/04/01 01:32:45;;;;;;;29.33;24.17;;;;;;;5.71;68.65;98810.94;4180574;28;20040;-67
2022/04/01 01:34:48;;;;;;;28.85;24.00;;;;;;;5.70;68.86;98811.81;4178133;28;20116;-67
2022/04/01 01:36:53;;;;;;;28.05;23.90;;;;;;;5.58;69.12;98816.03;4180441;28;20497;-67
2022/04/01 01:38:56;;;;;;;28.83;24.27;;;;;;;5.82;68.48;98813.63;4176613;28;20167;-66
2022/04/01 01:41:02;;;;;;;31.70;24.90;;;;;;;5.87;68.22;98820.53;4178019;28;20124;-67
2022/04/01 01:43:05;;;;;;;31.42;24.70;;;;;;;5.89;68.07;98812.81;4177839;28;20541;-67
2022/04/01 01:45:09;;;;;;;33.80;24.42;;;;;;;5.83;68.21;98802.47;4176920;28;20033;-67
2022/04/01 01:47:12;;;;;;;30.90;24.42;;;;;;;5.72;68.40;98815.25;4170183;28;20042;-67
2022/04/01 01:49:15;;;;;;;30.02;24.48;;;;;;;5.66;69.06;98810.06;4153708;28;20049;-67
2022/04/01 01:56:01;;;;;;;28.23;22.58;;;;;;;5.76;68.07;98811.84;4171701;28;20116;-66
2022/04/01 01:58:04;;;;;;;28.67;23.55;;;;;;;5.67;68.35;98802.34;4177378;28;20414;-66
2022/04/01 02:00:11;;;;;;;27.45;23.02;;;;;;;5.70;68.02;98806.66;4178522;28;20091;-66
2022/04/01 02:02:14;;;;;;;26.30;22.90;;;;;;;5.76;67.92;98802.41;4178982;28;20037;-66
2022/04/01 02:04:17;;;;;;;28.95;22.30;;;;;;;5.90;67.12;98797.34;4171915;28;20570;-67
2022/04/01 02:06:21;;;;;;;26.27;22.42;;;;;;;5.72;67.88;98804.94;4171679;28;20059;-68
2022/04/01 02:08:24;;;;;;;28.35;24.42;;;;;;;5.57;68.28;98803.13;4178627;28;20063;-67
2022/04/01 02:10:27;;;;;;;25.25;22.00;;;;;;;5.55;68.35;98797.97;4179804;28;20478;-67
2022/04/01 02:12:32;;;;;;;26.45;22.40;;;;;;;5.64;67.63;98812.63;4172963;28;20454;-67
2022/04/01 02:14:36;;;;;;;26.00;22.25;;;;;;;5.76;67.22;98812.72;4172825;28;20483;-67
2022/04/01 02:16:39;;;;;;;25.45;22.33;;;;;;;5.65;67.53;98805.75;4169557;28;20506;-67
2022/04/01 02:18:42;;;;;;;25.88;21.63;;;;;;;5.59;67.89;98806.56;4170145;28;20107;-67
2022/04/01 02:20:45;;;;;;;26.65;22.48;;;;;;;5.65;67.80;98818.63;4173454;28;20044;-67
2022/04/01 02:22:48;;;;;;;26.75;22.80;;;;;;;5.65;67.81;98811.78;4175153;28;20048;-67
2022/04/01 02:24:53;;;;;;;25.60;21.75;;;;;;;5.61;68.25;98807.47;4174481;28;20025;-67
2022/04/01 02:26:57;;;;;;;26.17;21.50;;;;;;;5.63;68.31;98807.47;4157284;28;20604;-67
2022/04/01 02:29:04;;;;;;;27.17;23.17;;;;;;;5.70;67.67;98804.94;4174781;28;20556;-67
2022/04/01 02:31:21;;;;;;;27.27;23.08;;;;;;;5.79;67.64;98817.03;4178872;28;20521;-67
2022/04/01 02:34:00;;;;;;;26.40;22.77;;;;;;;5.64;67.68;98817.78;4187093;28;20045;-67
2022/04/01 02:36:06;;;;;;;26.85;23.15;;;;;;;5.67;67.36;98816.94;4169680;28;20049;-67
2022/04/01 02:38:09;;;;;;;27.55;23.00;;;;;;;5.79;66.60;98819.59;4178779;28;20068;-67
2022/04/01 02:40:13;;;;;;;27.30;23.88;;;;;;;5.64;66.94;98820.38;4188450;28;20041;-67
2022/04/01 02:42:17;;;;;;;24.67;21.83;;;;;;;5.55;67.34;98821.16;4158715;28;20046;-66
2022/04/01 02:44:23;;;;;;;25.60;22.77;;;;;;;5.64;67.22;98822.94;4177524;28;20083;-67
2022/04/01 02:46:25;;;;;;;25.95;22.88;;;;;;;5.40;67.46;98824.47;4148091;28;20061;-67
2022/04/01 02:48:30;;;;;;;24.73;21.85;;;;;;;5.37;67.25;98821.00;4177340;28;20033;-67
2022/04/01 02:51:01;;;;;;;25.23;21.70;;;;;;;5.52;66.47;98823.72;4178411;28;20090;-67
2022/04/01 02:53:04;;;;;;;25.38;21.25;;;;;;;5.34;67.41;98823.56;4175162;28;20058;-67
2022/04/01 02:55:08;;;;;;;24.80;21.05;;;;;;;5.45;66.83;98823.63;4178887;28;20130;-67
2022/04/01 02:57:13;;;;;;;25.38;21.45;;;;;;;5.38;66.83;98826.16;4156595;28;20076;-67
2022/04/01 02:59:17;;;;;;;26.67;22.98;;;;;;;5.23;67.37;98821.75;4176101;28;20043;-67
2022/04/01 03:01:21;;;;;;;26.50;21.98;;;;;;;5.32;66.94;98828.69;4179240;28;20044;-67
2022/04/01 03:03:24;;;;;;;26.67;22.95;;;;;;;5.33;66.99;98826.97;4205686;28;20040;-67
2022/04/01 03:05:29;;;;;;;25.60;22.77;;;;;;;5.29;67.09;98827.81;4170117;28;20507;-67
2022/04/01 03:07:34;;;;;;;27.30;24.13;;;;;;;5.22;67.63;98824.31;4160230;28;20053;-67
2022/04/01 03:09:37;;;;;;;26.40;22.65;;;;;;;5.36;67.19;98824.41;4167428;28;20515;-67
2022/04/01 03:11:47;;;;;;;24.45;21.50;;;;;;;5.37;66.81;98832.19;4177068;28;20406;-66
2022/04/01 03:14:11;;;;;;;26.85;22.52;;;;;;;5.40;66.44;98828.75;4177247;28;20045;-67
2022/04/01 03:16:34;;;;;;;27.23;22.50;;;;;;;5.36;66.72;98833.03;4171753;28;20044;-66
2022/04/01 03:18:40;;;;;;;27.52;22.95;;;;;;;5.42;66.40;98833.06;4176899;28;20041;-67
2022/04/01 03:20:45;;;;;;;26.15;22.27;;;;;;;5.37;66.57;98828.72;4204056;28;20522;-67
2022/04/01 03:22:48;;;;;;;27.52;23.33;;;;;;;5.41;66.15;98835.63;4169243;28;20044;-67
2022/04/01 03:24:55;;;;;;;24.38;20.30;;;;;;;5.25;66.90;98837.22;4158883;28;20068;-67
2022/04/01 03:26:59;;;;;;;27.45;23.13;;;;;;;5.19;67.04;98835.44;4161429;28;20049;-67
2022/04/01 03:29:02;;;;;;;24.38;21.13;;;;;;;5.28;66.73;98841.53;4162802;28;20049;-67
2022/04/01 03:31:08;;;;;;;25.45;21.15;;;;;;;5.17;67.17;98831.13;4161005;28;20037;-67
2022/04/01 03:33:14;;;;;;;25.10;21.88;;;;;;;5.25;67.13;98835.50;4159931;28;20545;-67
2022/04/01 03:35:19;;;;;;;25.40;22.40;;;;;;;5.17;67.08;98834.56;4178566;28;20037;-68
2022/04/01 03:37:22;;;;;;;27.77;22.23;;;;;;;5.23;66.82;98832.06;4177959;28;20029;-68
2022/04/01 03:39:25;;;;;;;24.75;21.83;;;;;;;5.17;67.41;98826.84;4149707;28;20128;-68
2022/04/01 03:41:34;;;;;;;27.15;22.60;;;;;;;5.29;66.55;98820.94;4188521;28;20505;-67
2022/04/01 03:43:40;;;;;;;26.30;22.65;;;;;;;5.23;66.62;98826.91;4167339;28;20041;-67
2022/04/01 03:45:47;;;;;;;30.05;23.65;;;;;;;5.32;66.76;98825.25;4164448;28;20037;-67
2022/04/01 03:48:00;;;;;;;26.27;21.75;;;;;;;5.36;66.32;98827.00;4178820;28;20100;-67
2022/04/01 03:50:09;;;;;;;24.33;21.42;;;;;;;5.14;67.19;98828.50;4160226;28;20530;-67
2022/04/01 03:52:13;;;;;;;25.58;22.83;;;;;;;5.09;67.63;98823.31;4176209;28;20383;-67
2022/04/01 03:54:17;;;;;;;27.58;23.70;;;;;;;5.23;67.29;98828.63;4170729;28;20541;-67
2022/04/01 03:56:57;;;;;;;24.25;21.48;;;;;;;5.16;67.37;98830.25;4173274;28;20501;-67
2022/04/01 03:59:40;;;;;;;27.33;23.77;;;;;;;5.33;66.80;98827.84;4177300;28;20075;-66
2022/04/01 04:02:13;;;;;;;27.50;22.27;;;;;;;5.21;67.02;98833.75;4165479;28;20049;-65
2022/04/01 04:04:17;;;;;;;25.83;21.92;;;;;;;5.23;67.01;98832.06;4155449;28;20069;-65
2022/04/01 04:06:22;;;;;;;26.67;23.08;;;;;;;5.18;67.57;98838.00;4162336;28;20128;-65
2022/04/01 04:08:26;;;;;;;;;;;;;;;5.18;67.32;98832.84;4177272;28;20078;-65
2022/04/01 04:10:30;;;;;;;29.00;22.17;;;;;;;5.40;66.39;98849.38;4181689;28;19921;-66
2022/04/01 04:12:58;;;;;;;25.38;21.65;;;;;;;5.33;66.14;98845.00;4180525;28;20505;-69
2022/04/01 04:15:07;;;;;;;24.80;21.48;;;;;;;5.34;65.81;98846.75;4180190;28;20051;-66
2022/04/01 04:17:14;;;;;;;26.10;21.92;;;;;;;5.25;66.24;98850.94;4181525;28;20441;-68
2022/04/01 04:19:28;;;;;;;24.27;21.00;;;;;;;5.32;65.53;98848.44;4181801;28;20482;-69
2022/04/01 04:21:42;;;;;;;25.85;21.38;;;;;;;5.19;65.89;98852.63;4181834;28;20123;-67
2022/04/01 04:23:47;;;;;;;25.08;21.20;;;;;;;5.25;65.72;98857.81;4176409;28;20033;-67
2022/04/01 04:26:00;;;;;;;25.38;21.83;;;;;;;5.11;66.15;98857.72;4157525;28;20041;-66
2022/04/01 04:28:09;;;;;;;27.83;22.00;;;;;;;5.14;66.28;98860.31;4177774;28;20064;-66
2022/04/01 04:30:14;;;;;;;26.27;21.23;;;;;;;5.25;65.93;98861.25;4187324;28;20051;-66
2022/04/01 04:32:33;;;;;;;24.75;21.33;;;;;;;5.09;66.12;98866.25;4191760;28;20534;-66
2022/04/01 04:34:38;;;;;;;24.23;20.55;;;;;;;5.13;66.26;98866.28;4182995;28;20051;-66
2022/04/01 04:36:45;;;;;;;22.52;18.80;;;;;;;5.15;65.73;98868.88;4183518;28;20041;-66
2022/04/01 04:38:55;;;;;;;22.30;18.80;;;;;;;5.05;66.19;98870.50;4159286;28;20495;-66
2022/04/01 04:40:58;;;;;;;22.52;19.90;;;;;;;5.15;65.93;98872.31;4176444;28;20048;-66
2022/04/01 04:43:02;;;;;;;22.42;19.80;;;;;;;5.09;65.67;98877.41;4157609;28;20046;-66
2022/04/01 04:45:07;;;;;;;23.08;19.85;;;;;;;5.03;66.08;98874.78;4175212;28;20033;-66
2022/04/01 04:47:12;;;;;;;24.08;19.42;;;;;;;4.96;66.21;98876.41;4176019;28;20083;-66
2022/04/01 04:49:18;;;;;;;22.67;18.30;;;;;;;4.93;66.72;98872.94;4158794;28;20033;-67
2022/04/01 04:51:24;;;;;;;20.23;18.02;;;;;;;4.98;66.62;98879.00;4163530;28;20033;-66
2022/04/01 04:53:54;;;;;;;23.77;19.88;;;;;;;5.03;66.90;98891.09;4179826;28;20071;-66
2022/04/01 04:56:00;;;;;;;22.42;19.27;;;;;;;5.20;65.58;98882.69;4179343;28;20049;-66
2022/04/01 04:58:05;;;;;;;;;;;;;;;5.14;65.46;98891.22;4181414;28;20045;-65
2022/04/01 05:00:10;;;;;;;23.40;18.70;;;;;;;5.08;65.98;98893.69;4175791;28;19920;-66
2022/04/01 05:02:54;;;;;;;22.45;19.10;;;;;;;4.91;66.10;98890.97;4178351;28;20095;-66
2022/04/01 05:05:03;;;;;;;25.45;19.52;;;;;;;4.91;66.57;98901.25;4176098;28;20041;-66
2022/04/01 05:07:34;;;;;;;24.67;20.20;;;;;;;4.73;67.26;98907.03;4178796;28;20041;-66
2022/04/01 05:10:05;;;;;;;27.73;20.90;;;;;;;4.86;67.31;98908.94;4178397;28;20120;-66
2022/04/01 05:12:21;;;;;;;23.65;19.30;;;;;;;4.93;67.26;98919.31;4179845;28;20466;-66
2022/04/01 05:14:53;;;;;;;23.25;18.98;;;;;;;4.87;67.07;98910.63;4205538;28;20040;-66
2022/04/01 05:17:02;;;;;;;24.73;20.33;;;;;;;4.80;67.66;98918.28;4168986;28;20120;-67
2022/04/01 05:19:10;;;;;;;27.48;19.35;;;;;;;4.68;68.13;98919.00;4180740;28;20453;-68
2022/04/01 05:21:20;;;;;;;25.17;20.20;;;;;;;4.69;68.18;98928.44;4161323;28;20056;-68
2022/04/01 05:23:40;;;;;;;24.80;20.58;;;;;;;4.68;67.96;98926.72;4155855;28;20045;-67
2022/04/01 05:25:48;;;;;;;24.85;20.42;;;;;;;4.78;67.65;98930.28;4162828;28;20049;-68
2022/04/01 05:28:20;;;;;;;25.67;19.80;;;;;;;4.65;68.26;98929.25;4175107;28;20036;-68
2022/04/01 05:30:30;;;;;;;24.83;20.17;;;;;;;4.74;67.90;98933.66;4172910;28;20065;-69
2022/04/01 05:32:39;;;;;;;24.70;20.30;;;;;;;4.72;68.24;98937.06;4180588;28;20041;-68
2022/04/01 05:34:45;;;;;;;25.80;20.08;;;;;;;4.61;68.35;98941.19;4173694;28;20048;-68
2022/04/01 05:36:51;;;;;;;24.30;20.63;;;;;;;4.59;69.05;98942.91;4178553;28;20490;-67
2022/04/01 05:38:56;;;;;;;23.42;19.40;;;;;;;4.75;67.95;98943.13;4178129;28;20120;-67
2022/04/01 05:41:02;;;;;;;23.92;20.52;;;;;;;4.70;68.15;98948.19;4179475;28;20045;-67
2022/04/01 05:43:06;;;;;;;23.33;18.98;;;;;;;4.85;67.34;98943.25;4177208;28;20037;-67
2022/04/01 05:45:30;;;;;;;24.30;19.35;;;;;;;4.79;67.16;98943.16;4179668;28;20504;-67
2022/04/01 05:47:35;;;;;;;21.77;18.67;;;;;;;4.66;67.61;98954.16;4176197;28;20033;-66
2022/04/01 05:49:41;;;;;;;23.38;19.77;;;;;;;4.73;67.41;98945.66;4174855;28;20494;-66
2022/04/01 05:51:47;;;;;;;25.70;19.67;;;;;;;4.76;67.49;98957.69;4177796;28;20484;-67
2022/04/01 05:53:52;;;;;;;22.95;19.63;;;;;;;4.83;67.08;98946.63;4177553;28;20532;-66
2022/04/01 05:55:56;;;;;;;24.00;20.35;;;;;;;4.86;66.64;98955.28;4178145;28;20553;-68
2022/04/01 05:58:04;;;;;;;25.92;20.40;;;;;;;4.88;66.83;98947.56;4176840;28;20037;-67
2022/04/01 06:00:12;;;;;;;25.40;20.20;;;;;;;4.59;67.55;98950.63;4176496;28;20592;-68
2022/04/01 06:02:40;;;;;;;25.73;20.20;;;;;;;4.69;67.38;98956.78;4178415;28;20501;-67
2022/04/01 06:05:06;;;;;;;24.95;19.92;;;;;;;4.85;67.08;98953.53;4206998;28;20089;-67
2022/04/01 06:07:11;;;;;;;23.73;19.38;;;;;;;4.80;67.24;98965.47;4184085;28;20037;-67
2022/04/01 06:09:34;;;;;;;24.75;19.75;;;;;;;4.70;67.41;98958.47;4173067;28;20037;-67
2022/04/01 06:11:58;;;;;;;23.70;19.02;;;;;;;4.75;67.10;98962.00;4175919;28;20069;-67
2022/04/01 06:14:33;;;;;;;20.73;18.08;;;;;;;4.94;66.70;98967.38;4174668;28;20045;-67
2022/04/01 06:17:09;;;;;;;23.17;18.67;;;;;;;4.87;66.78;98963.84;4178266;28;20296;-68
2022/04/01 06:19:22;;;;;;;24.02;19.48;;;;;;;4.79;67.11;98971.50;4153453;28;20088;-67
2022/04/01 06:21:27;;;;;;;21.58;18.58;;;;;;;4.79;67.36;98976.63;4155265;28;20061;-67
2022/04/01 06:24:01;;;;;;;24.23;20.40;;;;;;;4.66;68.43;98974.75;4160800;28;20506;-66
2022/04/01 06:26:10;;;;;;;23.95;19.60;;;;;;;4.79;68.23;98974.06;4158705;28;20038;-67
2022/04/01 06:28:17;;;;;;;24.92;18.83;;;;;;;4.81;67.83;98982.66;4153449;28;20033;-67
2022/04/01 06:30:22;;;;;;;20.92;18.65;;;;;;;4.75;68.12;98984.31;4163235;28;20419;-67
2022/04/01 06:32:51;;;;;;;22.48;18.27;;;;;;;4.67;68.44;98982.50;4163362;28;20512;-67
2022/04/01 06:35:05;;;;;;;20.92;17.95;;;;;;;4.61;68.92;98986.66;4162886;28;20091;-67
2022/04/01 06:37:29;;;;;;;21.85;17.25;;;;;;;4.86;67.84;98987.88;4164389;28;20029;-66
2022/04/01 06:39:43;;;;;;;21.05;18.67;;;;;;;4.78;68.10;98995.50;4161553;28;20568;-67
2022/04/01 06:41:48;;;;;;;21.38;17.95;;;;;;;4.74;68.46;98991.16;4161969;28;20434;-67
2022/04/01 06:44:10;;;;;;;21.55;18.17;;;;;;;4.66;68.60;98997.91;4164059;28;20060;-66
2022/04/01 06:46:35;;;;;;;20.80;17.48;;;;;;;4.70;68.57;99002.25;4152244;28;20514;-67
2022/04/01 06:48:46;;;;;;;22.20;18.35;;;;;;;4.69;68.94;98992.81;4163045;28;20507;-67
2022/04/01 06:51:19;;;;;;;23.48;17.73;;;;;;;4.72;68.63;98998.84;4162223;28;20100;-67
2022/04/01 06:53:41;;;;;;;18.80;16.80;;;;;;;4.63;68.98;99000.41;4164346;28;20045;-67
2022/04/01 06:56:03;;;;;;;19.38;17.27;;;;;;;4.73;68.91;99010.00;4159815;28;20087;-68
2022/04/01 06:58:11;;;;;;;21.10;17.42;;;;;;;4.70;68.56;99007.38;4161903;28;20037;-67
2022/04/01 07:00:20;;;;;;;19.08;16.35;;;;;;;4.78;68.70;99005.78;4154995;28;20036;-68
2022/04/01 07:02:25;;;;;;;18.35;15.95;;;;;;;4.68;68.56;99011.66;4154959;28;20120;-68
2022/04/01 07:04:28;;;;;;;19.13;16.13;;;;;;;4.77;68.51;99005.78;4162855;28;20037;-68
2022/04/01 07:06:31;;;;;;;17.80;15.63;;;;;;;4.69;69.13;99010.81;4163752;28;20033;-68
2022/04/01 07:08:34;;;;;;;19.00;15.73;;;;;;;4.69;69.08;99006.53;4179464;28;20072;-68
2022/04/01 07:10:38;;;;;;;19.85;16.73;;;;;;;4.84;68.60;99010.16;4159980;28;20041;-68
2022/04/01 07:12:41;;;;;;;;;;;;;;;4.81;68.60;99007.56;4164211;28;20034;-66
2022/04/01 07:14:44;;;;;;;20.17;15.10;;;;;;;4.70;68.74;99009.97;4162824;28;19925;-66
2022/04/01 07:16:47;;;;;;;20.80;15.80;;;;;;;4.84;68.19;99003.31;4158786;28;20312;-69
2022/04/01 07:18:51;;;;;;;22.65;15.60;;;;;;;4.77;68.71;99019.50;4155965;28;20060;-68
2022/04/01 07:20:54;;;;;;;17.85;15.43;;;;;;;4.95;68.16;99008.63;4161842;28;20128;-68
2022/04/01 07:22:57;;;;;;;16.23;14.20;;;;;;;4.90;68.26;99010.25;4134877;28;20213;-68
2022/04/01 07:25:00;;;;;;;18.60;16.08;;;;;;;4.89;67.50;99005.94;4155932;28;20416;-68
2022/04/01 07:27:08;;;;;;;17.55;15.15;;;;;;;4.80;67.99;99016.13;4156496;28;20042;-68
2022/04/01 07:29:11;;;;;;;22.07;14.37;;;;;;;4.78;68.09;99020.38;4147636;28;20029;-68
2022/04/01 07:33:53;;;;;;;16.10;13.55;;;;;;;4.79;67.95;99029.81;4159909;28;20465;-68
2022/04/01 07:35:56;;;;;;;19.95;14.43;;;;;;;4.68;67.86;99021.97;4153547;28;20053;-68
2022/04/01 07:37:59;;;;;;;17.08;12.88;;;;;;;4.77;67.57;99027.22;4159171;28;20112;-68
2022/04/01 07:40:04;;;;;;;17.38;14.38;;;;;;;4.76;67.46;99030.66;4159476;28;20120;-69
2022/04/01 07:42:07;;;;;;;;;;;;;;;4.67;67.81;99033.97;4145720;28;20049;-69
2022/04/01 07:44:10;;;;;;;15.68;12.75;;;;;;;4.77;67.47;99032.38;4164140;28;19928;-69
2022/04/01 07:46:14;;;;;;;16.63;13.95;;;;;;;4.75;67.48;99041.81;4158177;28;20511;-68
2022/04/01 07:48:17;;;;;;;20.25;13.98;;;;;;;4.80;66.89;99031.56;4163623;28;20513;-68
2022/04/01 07:50:23;;;;;;;16.35;13.27;;;;;;;4.67;67.18;99040.81;4164044;28;20124;-68
2022/04/01 07:52:26;;;;;;;20.70;12.73;;;;;;;4.68;67.51;99038.25;4162106;28;20046;-68
2022/04/01 07:54:29;;;;;;;15.77;12.63;;;;;;;4.71;66.48;99040.88;4164132;28;20041;-68
2022/04/01 07:56:32;;;;;;;15.23;13.52;;;;;;;4.72;66.61;99044.34;4166024;28;20487;-68
2022/04/01 07:58:35;;;;;;;14.55;11.80;;;;;;;4.64;66.90;99041.63;4165911;28;20116;-68
2022/04/01 08:00:38;;;;;;;17.30;12.23;;;;;;;4.65;66.82;99039.94;4162807;28;20041;-68
2022/04/01 08:02:41;;;;;;;14.85;11.88;;;;;;;4.70;66.84;99046.00;4163316;28;20037;-68
2022/04/01 08:04:44;;;;;;;15.70;11.60;;;;;;;4.64;67.10;99051.06;4164298;28;20037;-68
2022/04/01 08:06:51;;;;;;;16.45;12.85;;;;;;;4.65;66.56;99052.81;4162888;28;20403;-68
2022/04/01 08:08:55;;;;;;;15.35;12.98;;;;;;;4.54;67.59;99060.34;4157484;28;20041;-68
2022/04/01 08:10:58;;;;;;;14.82;12.65;;;;;;;4.44;68.06;99054.19;4161741;28;20544;-69
2022/04/01 08:13:01;;;;;;;18.88;13.52;;;;;;;4.58;67.82;99058.69;4163501;28;20045;-68
2022/04/01 08:15:05;;;;;;;14.02;11.48;;;;;;;4.61;67.14;99061.31;4162972;28;20121;-68
2022/04/01 08:17:11;;;;;;;19.90;13.07;;;;;;;4.70;66.92;99064.03;4161860;28;20037;-68
2022/04/01 08:19:15;;;;;;;17.73;12.55;;;;;;;4.65;66.82;99068.25;4161814;28;20048;-68
2022/04/01 08:21:18;;;;;;;18.55;14.02;;;;;;;4.79;65.68;99065.88;4163990;28;20073;-69
2022/04/01 08:23:23;;;;;;;16.52;13.18;;;;;;;4.53;65.94;99071.50;4156557;28;20033;-68
2022/04/01 08:25:25;;;;;;;18.00;13.77;;;;;;;4.57;66.39;99062.09;4163182;28;20459;-66
2022/04/01 08:27:37;;;;;;;17.52;12.13;;;;;;;4.58;66.07;99084.44;4157541;28;20053;-67
2022/04/01 08:29:41;;;;;;;17.17;13.07;;;;;;;4.52;65.95;99080.91;4159106;28;20038;-66
2022/04/01 08:31:44;;;;;;;17.15;14.18;;;;;;;4.46;66.63;99083.38;4161840;28;20050;-66
2022/04/01 08:33:47;;;;;;;19.40;14.02;;;;;;;4.57;65.66;99088.72;4157993;28;20034;-67
2022/04/01 08:35:50;;;;;;;18.67;13.88;;;;;;;4.43;66.11;99088.47;4158457;28;20065;-67
2022/04/01 08:37:54;;;;;;;21.30;13.82;;;;;;;4.32;66.66;99100.28;4157899;28;20051;-66
2022/04/01 08:39:59;;;;;;;21.27;14.77;;;;;;;4.23;66.96;99089.84;4152717;28;20033;-66
2022/04/01 08:42:03;;;;;;;;;;;;;;;4.35;66.90;99100.34;4163136;28;20116;-67
2022/04/01 08:44:07;;;;;;;18.70;13.73;;;;;;;4.40;66.37;99093.59;4160431;28;19929;-66
2022/04/01 08:46:10;;;;;;;16.95;13.90;;;;;;;4.31;66.97;99099.44;4157049;28;20041;-66
2022/04/01 08:48:13;;;;;;;15.90;13.38;;;;;;;4.33;66.89;99096.88;4163684;28;20037;-67
2022/04/01 08:50:17;;;;;;;21.77;14.30;;;;;;;4.41;66.62;99104.72;4162668;28;20045;-67
2022/04/01 08:52:20;;;;;;;16.55;12.85;;;;;;;4.53;65.94;99105.81;4145539;28;20038;-67
2022/04/01 08:54:23;;;;;;;17.48;14.40;;;;;;;4.41;66.74;99107.31;4157236;28;20037;-66
2022/04/01 08:56:27;;;;;;;17.08;13.23;;;;;;;4.63;64.62;99113.66;4160744;28;20044;-66
2022/04/01 08:58:30;;;;;;;21.08;14.13;;;;;;;4.57;65.11;99121.28;4162768;28;20041;-66
2022/04/01 09:00:34;;;;;;;28.15;14.10;;;;;;;4.37;65.08;99111.53;4147720;28;20042;-67
2022/04/01 09:02:37;;;;;;;19.40;12.40;;;;;;;4.42;64.98;99116.75;4164006;28;20068;-67
2022/04/01 09:04:40;;;;;;;15.57;12.25;;;;;;;4.24;65.53;99114.75;4162872;28;20296;-67
2022/04/01 09:06:43;;;;;;;15.75;12.75;;;;;;;4.15;65.28;99121.44;4163482;28;20091;-67
2022/04/01 09:08:46;;;;;;;17.92;12.98;;;;;;;4.27;65.10;99120.78;4165167;28;20045;-67
2022/04/01 09:10:51;;;;;;;17.15;12.70;;;;;;;4.39;65.37;99121.84;4162244;28;20061;-67
2022/04/01 09:12:56;;;;;;;16.60;13.02;;;;;;;4.47;64.41;99126.28;4161839;28;20037;-67
2022/04/01 09:14:59;;;;;;;;;;;;;;;4.36;64.32;99131.25;4158413;28;20463;-66
2022/04/01 09:17:02;;;;;;;19.38;12.43;;;;;;;4.56;63.61;99125.59;4157868;28;19928;-66
2022/04/01 09:19:08;;;;;;;18.30;13.07;;;;;;;4.46;64.02;99134.84;4159641;28;20029;-67
2022/04/01 09:21:13;;;;;;;20.63;13.93;;;;;;;4.37;64.33;99139.84;4157313;28;20442;-67
2022/04/01 09:23:22;;;;;;;;;;;;;;;4.36;64.37;99138.09;4163033;28;20132;-67
2022/04/01 09:25:25;;;;;;;19.02;13.65;;;;;;;4.37;64.67;99145.84;4161359;28;19931;-67
2022/04/01 09:27:39;;;;;;;22.77;13.65;;;;;;;4.43;64.75;99150.25;4165040;28;20048;-67
2022/04/01 09:29:43;;;;;;;16.45;12.80;;;;;;;4.43;64.41;99142.53;4157621;28;20049;-67
2022/04/01 09:31:53;;;;;;;26.05;13.20;;;;;;;4.54;63.30;99150.41;4156190;28;20057;-67
2022/04/01 09:33:56;;;;;;;18.25;12.15;;;;;;;4.42;63.85;99152.78;4146069;28;20056;-67
2022/04/01 09:36:04;;;;;;;18.60;12.35;;;;;;;4.43;63.13;99152.81;4163827;28;20084;-67
2022/04/01 09:38:09;;;;;;;20.20;11.98;;;;;;;4.30;63.71;99154.28;4163297;28;20509;-67
2022/04/01 09:40:13;;;;;;;16.88;12.48;;;;;;;4.26;63.69;99154.22;4163329;28;20068;-66
2022/04/01 09:42:20;;;;;;;17.45;11.45;;;;;;;4.27;63.36;99158.53;4156319;28;20039;-67
2022/04/01 09:44:24;;;;;;;15.30;11.48;;;;;;;4.15;63.49;99156.59;4152152;28;20042;-67
2022/04/01 09:46:29;;;;;;;13.85;11.10;;;;;;;4.29;64.00;99155.16;4160067;28;20050;-67
2022/04/01 09:48:40;;;;;;;15.10;10.75;;;;;;;4.23;63.72;99167.03;4158598;28;20465;-67
2022/04/01 09:50:44;;;;;;;16.33;11.13;;;;;;;4.24;62.85;99163.63;4145274;28;20454;-67
2022/04/01 09:52:49;;;;;;;18.40;10.68;;;;;;;4.18;63.49;99160.06;4159745;28;20068;-67
2022/04/01 09:54:53;;;;;;;15.32;12.00;;;;;;;4.11;63.44;99160.81;4163816;28;20124;-67
2022/04/01 09:56:58;;;;;;;16.05;11.07;;;;;;;4.08;63.92;99163.31;4163254;28;20437;-67
2022/04/01 09:59:03;;;;;;;15.85;10.77;;;;;;;4.21;63.25;99173.84;4164376;28;20487;-67
2022/04/01 10:01:08;;;;;;;14.75;11.32;;;;;;;4.23;63.17;99161.88;4164471;28;20037;-67
2022/04/01 10:03:15;;;;;;;13.45;11.00;;;;;;;4.19;63.47;99169.53;4153863;28;20128;-67